Weather observations for the past three days for
Dumas, Moore County Airport
Imperial (Metric)
Date Time (cdt) Wind (mph) Vis. (mi.) Weather Sky Cond. Temperature (ºF) Relative Humidity Wind Chill (°F) Heat Index (°F) Pressure Precipitation (in)
Air Dwpt 6 hour altimeter (in) sea level (mb) 1 hr 3 hr 6 hr
Max. Min.
04 16:15 S 16 G 22 10.00 A Few Clouds FEW100 100.4 53.6 21% 98 29.94 0.0
04 15:55 SE 8 G 23 10.00 A Few Clouds FEW100 96.8 53.6 23% 95 29.95 0.0
04 15:35 S 14 10.00 Partly Cloudy FEW100 SCT120 98.6 53.6 22% 96 29.95 0.0
04 15:15 S 14 10.00 Mostly Cloudy SCT100 BKN120 98.6 53.6 22% 96 29.95 0.0
04 14:55 S 12 10.00 A Few Clouds FEW110 98.6 51.8 21% 96 29.96 0.0
04 14:35 S 12 10.00 Fair CLR 98.6 51.8 21% 96 29.97 0.0
04 14:15 Vrbl 7 G 17 10.00 Fair CLR 100.4 51.8 20% 98 29.98 0.0
04 13:55 S 8 10.00 Fair CLR 98.6 51.8 21% 96 29.98 0.0
04 13:35 S 10 10.00 Fair CLR 98.6 51.8 21% 96 29.99 0.0
04 13:15 SW 7 10.00 Fair CLR 98.6 53.6 22% 96 30 0.0
04 12:59 S 12 G 18 10.00 Fair CLR 96.8 53.6 23% 95 30 0.0
04 12:36 W 8 10.00 Fair CLR 96.8 53.6 23% 95 30.01 0.0
04 12:15 SW 9 10.00 Fair CLR 95 53.6 25% 93 30.01 0.0
04 11:55 W 10 10.00 Fair CLR 93.2 53.6 26% 91 30.02 0.0
04 11:35 SW 7 10.00 Fair CLR 93.2 55.4 28% 91 30.02 0.0
04 11:15 W 7 10.00 Fair CLR 91.4 55.4 30% 90 30.01 0.0
04 10:55 W 12 10.00 Fair CLR 91.4 55.4 30% 90 30.01 0.0
04 10:35 W 12 10.00 Fair CLR 87.8 57.2 35% 87 30.01 0.0
04 10:15 W 9 10.00 Fair CLR 86 57.2 38% 85 30.01 0.0
04 09:55 SW 12 10.00 Fair CLR 84.2 57.2 40% 83 30.01 0.0
04 09:35 SW 9 10.00 Fair CLR 82.4 59 45% 82 30.01 0.0
04 09:15 S 10 10.00 Fair CLR 78.8 59 51% 80 30.01 0.0
04 08:55 S 10 10.00 Fair CLR 77 60.8 57% 79 30.01 0.0
04 08:35 S 8 10.00 Fair CLR 75.2 60.8 61% 77 30 0.0
04 08:15 S 7 10.00 Fair CLR 71.6 60.8 69% 30 0.0
04 07:55 S 8 10.00 Fair CLR 69.8 60.8 73% 30 0.0
04 07:35 S 8 10.00 Fair CLR 68 59 73% 29.99 0.0
04 07:15 S 12 10.00 Fair CLR 69.8 59 69% 29.98 0.0
04 06:55 S 10 10.00 Fair CLR 68 59 78.3 66.2 73% 29.98 0.0
04 06:35 S 9 10.00 Fair CLR 66.2 59 78% 29.98 0.0
04 06:15 S 7 10.00 Fair CLR 68 59 73% 29.98 0.0
04 05:55 S 10 10.00 Fair CLR 69.8 59 69% 29.98 0.0
04 05:35 S 12 10.00 Fair CLR 69.8 59 69% 29.98 0.0
04 05:15 S 10 10.00 Fair CLR 69.8 59 69% 29.98 0.0
04 04:55 S 9 10.00 Fair CLR 68 59 73% 29.98 0.0
04 04:35 S 10 10.00 Fair CLR 69.8 59 69% 29.98 0.0
04 04:15 S 10 10.00 Fair CLR 69.8 59 69% 29.98 0.0
04 03:55 S 9 10.00 Fair CLR 71.6 59 65% 29.97 0.0
04 03:35 S 8 10.00 Fair CLR 73.4 59 61% 29.97 0.0
04 03:15 S 9 10.00 Fair CLR 73.4 59 61% 29.97 0.0
04 02:56 S 10 10.00 Fair CLR 73.4 57.2 57% 29.97 0.0
04 02:35 SE 10 10.00 Fair CLR 73.4 57.2 57% 29.98 0.0
04 02:15 S 13 10.00 Fair CLR 75.2 57.2 54% 78 29.98 0.0
04 01:55 S 12 10.00 Fair CLR 75.2 57.2 54% 78 29.98 0.0
04 01:35 S 8 10.00 Fair CLR 75.2 57.2 54% 78 29.98 0.0
04 01:15 S 12 10.00 Fair CLR 77 55.4 47% 79 29.98 0.0
04 00:55 S 12 10.00 Fair CLR 77 55.4 96.1 78.1 47% 79 29.98 0.0
04 00:35 S 15 10.00 Fair CLR 78.8 55.4 45% 79 29.97 0.0
04 00:15 S 16 10.00 Fair CLR 80.6 53.6 39% 80 29.97 0.0
03 23:55 S 14 G 21 10.00 Fair CLR 80.6 53.6 39% 80 29.97 0.0
03 23:35 S 14 10.00 Fair CLR 80.6 53.6 39% 80 29.96 0.0
03 23:15 S 14 10.00 Fair CLR 78.8 53.6 42% 79 29.96 0.0
03 22:55 S 12 10.00 Fair CLR 78.8 53.6 42% 79 29.96 0.0
03 22:35 S 12 10.00 Fair CLR 78.8 53.6 42% 79 29.96 0.0
03 22:15 S 13 10.00 Fair CLR 78.8 53.6 42% 79 29.96 0.0
03 21:55 SE 13 10.00 Fair CLR 80.6 55.4 42% 81 29.95 0.0
03 21:35 S 15 10.00 Fair CLR 82.4 55.4 40% 82 29.95 0.0
03 21:15 SE 16 10.00 Fair CLR 82.4 55.4 40% 82 29.94 0.0
03 20:55 S 16 G 23 10.00 Fair CLR 82.4 55.4 40% 82 29.95 0.0
03 20:35 S 15 G 20 10.00 Fair CLR 84.2 55.4 37% 83 29.94 0.0
03 20:15 S 13 G 24 10.00 Fair CLR 86 53.6 33% 84 29.94 0.0
03 19:55 SE 15 10.00 Fair CLR 87.8 53.6 31% 86 29.93 0.0
03 19:35 SE 17 G 24 10.00 Fair CLR 89.6 55.4 31% 88 29.93 0.0
03 19:15 S 16 G 21 10.00 Fair CLR 89.6 55.4 31% 88 29.92 0.0
03 18:55 S 16 G 22 10.00 Fair CLR 95 51.8 101.8 91.6 23% 92 29.91 0.0
03 18:35 S 16 10.00 Fair CLR 96.8 51.8 22% 94 29.91 0.0
03 18:15 S 15 10.00 Fair CLR 98.6 50 19% 95 29.9 0.0
03 17:55 SE 8 10.00 A Few Clouds FEW120 98.6 51.8 21% 96 29.9 0.0
03 17:35 E 6 10.00 Partly Cloudy SCT120 93.2 55.4 28% 91 29.91 0.0
03 17:15 Vrbl 5 10.00 Mostly Cloudy BKN120 96.8 51.8 22% 94 29.92 0.0
03 16:55 S 16 G 22 10.00 Partly Cloudy SCT120 96.8 48.2 19% 93 29.92 0.0
03 16:35 SE 17 G 22 10.00 A Few Clouds FEW110 100.4 50 18% 97 29.91 0.0
03 16:15 SE 15 10.00 A Few Clouds FEW120 98.6 51.8 21% 96 29.92 0.0
03 15:55 Vrbl 5 10.00 A Few Clouds FEW120 100.4 48.2 17% 97 29.92 0.0
03 15:35 Vrbl 5 10.00 Fair CLR 98.6 48.2 18% 95 29.92 0.0
03 15:15 Vrbl 3 10.00 Fair CLR 98.6 48.2 18% 95 29.94 0.0
03 14:55 Vrbl 6 10.00 Fair CLR 100.4 50 18% 97 29.94 0.0
03 14:35 SE 9 10.00 Fair CLR 100.4 50 18% 97 29.95 0.0
03 14:15 S 7 10.00 Fair CLR 98.6 50 19% 95 29.96 0.0
03 13:55 Vrbl 5 10.00 Fair CLR 96.8 51.8 22% 94 29.97 0.0
03 13:35 W 7 10.00 Fair CLR 96.8 53.6 23% 95 29.98 0.0
03 13:15 W 8 10.00 Fair CLR 95 53.6 25% 93 29.99 0.0
03 12:55 W 13 G 17 10.00 Fair CLR 96.8 53.6 96.6 69.1 23% 95 29.99 0.0
03 12:35 SW 9 G 18 10.00 Fair CLR 95 53.6 25% 93 30 0.0
03 12:15 W 12 G 20 10.00 Fair CLR 95 53.6 25% 93 30 0.0
03 11:55 SW 15 G 21 10.00 Fair CLR 95 53.6 25% 93 30 0.0
03 11:35 SW 13 G 22 10.00 Fair CLR 93.2 53.6 26% 91 30 0.0
03 11:15 SW 17 G 24 10.00 Fair CLR 93.2 53.6 26% 91 30 0.0
03 10:55 SW 21 10.00 Fair and Breezy CLR 91.4 53.6 28% 89 30 0.0
03 10:35 SW 16 G 23 10.00 Fair CLR 86 53.6 33% 84 30 0.0
03 10:15 SW 20 G 23 10.00 Fair CLR 89.6 55.4 31% 88 30 0.0
03 09:55 SW 18 G 26 10.00 Fair CLR 87.8 55.4 33% 86 30 0.0
03 09:35 SW 16 10.00 Fair CLR 84.2 55.4 37% 83 30 0.0
03 09:15 SW 18 10.00 Fair CLR 82.4 55.4 40% 82 30 0.0
03 08:55 SW 15 10.00 Fair CLR 80.6 55.4 42% 81 30 0.0
03 08:36 S 8 10.00 Fair CLR 75.2 55.4 50% 78 30 0.0
03 08:15 S 8 10.00 Fair CLR 73.4 55.4 53% 30 0.0
03 07:55 SW 9 10.00 Fair CLR 71.6 55.4 57% 30 0.0
03 07:35 SW 12 10.00 Fair CLR 69.8 53.6 57% 30 0.0
03 07:15 SW 12 10.00 Fair CLR 69.8 53.6 57% 29.99 0.0
03 06:55 S 7 10.00 Fair CLR 69.8 55.4 77 70.5 60% 30 0.0
03 06:35 S 9 10.00 A Few Clouds FEW120 71.6 53.6 53% 30 0.0
03 06:08 S 8 10.00 Fair CLR 71.6 55.4 57% 30 0.0
03 05:55 S 9 10.00 Fair CLR 71.6 55.4 57% 30 0.0
03 05:35 S 9 10.00 Fair CLR 73.4 55.4 53% 30 0.0
03 05:15 S 9 10.00 Fair CLR 73.4 55.4 53% 30 0.0
03 04:55 S 9 10.00 Fair CLR 73.4 55.4 53% 30 0.0
03 04:35 S 12 10.00 A Few Clouds FEW110 73.4 55.4 53% 30.01 0.0
03 04:15 SE 12 10.00 Fair CLR 73.4 55.4 53% 30 0.0
03 03:55 S 10 10.00 Fair CLR 71.6 55.4 57% 30.01 0.0
03 03:35 S 12 10.00 Fair CLR 73.4 55.4 53% 30 0.0
03 03:15 S 10 10.00 Fair CLR 71.6 55.4 57% 30 0.0
03 02:55 S 9 10.00 Fair CLR 71.6 55.4 57% 30 0.0
03 02:35 S 8 10.00 Fair CLR 73.4 55.4 53% 30 0.0
03 02:15 S 9 10.00 Fair CLR 73.4 57.2 57% 30 0.0
03 01:55 SE 10 10.00 Fair CLR 73.4 57.2 57% 30 0.0
03 01:35 S 9 10.00 Fair CLR 73.4 57.2 57% 30 0.0
03 01:15 S 10 10.00 Fair CLR 75.2 57.2 54% 78 30 0.0
03 00:55 S 12 10.00 Fair CLR 77 55.4 93.9 76.3 47% 79 30 0.0
03 00:35 S 9 10.00 Fair CLR 77 55.4 47% 79 30 0.0
03 00:15 SE 9 10.00 Fair CLR 77 57.2 51% 79 30 0.0
02 23:55 S 12 10.00 Fair CLR 77 57.2 51% 79 30 0.0
02 23:35 S 9 10.00 Fair CLR 78.8 55.4 45% 79 30 0.0
02 23:15 S 10 10.00 Fair CLR 80.6 55.4 42% 81 29.99 0.0
02 22:55 S 12 10.00 Fair CLR 80.6 55.4 42% 81 29.99 0.0
02 22:35 S 9 10.00 Fair CLR 77 57.2 51% 79 30 0.0
02 22:16 S 8 10.00 Fair CLR 77 57.2 51% 79 29.99 0.0
02 21:55 S 10 10.00 Fair CLR 78.8 59 51% 80 29.99 0.0
02 21:35 S 10 10.00 Fair CLR 78.8 59 51% 80 29.98 0.0
02 21:15 S 10 10.00 Fair CLR 80.6 59 48% 81 29.98 0.0
02 20:55 S 12 10.00 Fair CLR 82.4 57.2 42% 82 29.97 0.0
02 20:35 S 14 10.00 Fair CLR 84.2 57.2 40% 83 29.97 0.0
02 20:15 S 13 10.00 Fair CLR 86 57.2 38% 85 29.96 0.0
02 19:55 S 16 10.00 Fair CLR 87.8 57.2 35% 87 29.96 0.0
02 19:35 SE 21 10.00 Fair and Breezy CLR 87.8 59 38% 87 29.97 0.0
02 19:15 SE 17 10.00 Fair CLR 89.6 57.2 33% 88 29.97 0.0
02 18:55 S 23 10.00 Fair and Breezy CLR 93.2 55.4 95.5 87.1 28% 91 29.97 0.0
02 18:35 S 22 10.00 Fair and Breezy CLR 95 53.6 25% 93 29.96 0.0
02 18:15 S 16 10.00 Fair CLR 93.2 55.4 28% 91 29.96 0.0
02 17:55 S 17 10.00 Fair CLR 91.4 55.4 30% 90 29.97 0.0
02 17:35 S 17 G 21 10.00 Fair CLR 89.6 59 36% 89 29.97 0.0
02 17:15 S 20 G 29 10.00 Fair CLR 91.4 59 34% 91 29.98 0.0
02 16:55 SE 14 G 18 10.00 Fair CLR 91.4 57.2 32% 90 29.98 0.0
02 16:35 SE 20 G 28 10.00 Fair CLR 89.6 59 36% 89 29.98 0.0
02 16:15 SE 21 G 24 10.00 Fair and Breezy CLR 91.4 57.2 32% 90 29.99 0.0
02 15:55 S 26 G 30 10.00 A Few Clouds and Windy FEW110 91.4 59 34% 91 30 0.0
02 15:35 S 14 10.00 A Few Clouds FEW110 89.6 60.8 38% 90 30.01 0.0
02 15:15 S 20 G 25 10.00 A Few Clouds FEW085 FEW120 89.6 59 36% 89 30.02 0.0
02 14:55 S 20 10.00 Partly Cloudy SCT085 91.4 55.4 30% 90 30.02 0.0
02 14:35 S 22 G 26 10.00 Partly Cloudy and Breezy SCT085 SCT110 95 57.2 28% 94 30.02 0.0
02 14:15 SW 12 G 18 10.00 Partly Cloudy FEW085 SCT110 95 55.4 26% 93 30.03 0.0
02 13:55 SW 10 10.00 A Few Clouds FEW110 93.2 57.2 30% 92 30.04 0.0
02 13:35 SW 9 10.00 A Few Clouds FEW110 93.2 57.2 30% 92 30.06 0.0
02 13:15 SW 13 10.00 A Few Clouds FEW110 91.4 57.2 32% 90 30.07 0.0
02 12:55 SW 14 G 17 10.00 A Few Clouds FEW110 91.4 57.2 91.9 64.8 32% 90 30.08 0.0
02 12:35 SW 12 10.00 A Few Clouds FEW110 89.6 57.2 33% 88 30.09 0.0
02 12:15 SW 14 G 23 10.00 A Few Clouds FEW110 89.6 57.2 33% 88 30.09 0.0
02 11:55 SW 17 G 25 10.00 Fair CLR 89.6 57.2 33% 88 30.09 0.0
02 11:35 SW 14 G 22 10.00 Fair CLR 89.6 59 36% 89 30.1 0.0
02 11:15 SW 14 10.00 Fair CLR 87.8 59 38% 87 30.1 0.0
02 10:55 SW 17 G 22 10.00 Fair CLR 87.8 59 38% 87 30.1 0.0
02 10:35 SW 16 G 21 10.00 Fair CLR 86 59 40% 85 30.09 0.0
02 10:15 SW 15 G 20 10.00 Fair CLR 84.2 59 43% 84 30.09 0.0
02 09:55 SW 17 10.00 Fair CLR 82.4 57.2 42% 82 30.09 0.0
02 09:35 SW 14 10.00 Fair CLR 80.6 57.2 45% 81 30.09 0.0
02 09:15 SW 12 10.00 Fair CLR 78.8 55.4 45% 79 30.1 0.0
02 08:55 SW 12 10.00 Fair CLR 77 55.4 47% 79 30.1 0.0
02 08:35 SW 9 10.00 Fair CLR 75.2 55.4 50% 78 30.1 0.0
02 08:15 SW 7 10.00 Fair CLR 71.6 55.4 57% 30.09 0.0
02 07:55 S 8 10.00 Fair CLR 68 57.2 69% 30.08 0.0
02 07:35 S 9 10.00 Fair CLR 66.2 55.4 68% 30.08 0.0
02 07:15 S 6 10.00 Fair CLR 64.4 57.2 78% 30.08 0.0
02 06:55 S 7 10.00 Fair CLR 66.2 55.4 77.7 66.4 68% 30.07 0.0
02 06:35 S 9 10.00 Fair CLR 68 55.4 64% 30.07 0.0
02 06:15 S 8 10.00 Fair CLR 68 55.4 64% 30.06 0.0
02 05:55 S 9 10.00 Fair CLR 66.2 55.4 68% 30.06 0.0
02 05:35 S 7 10.00 Fair CLR 68 55.4 64% 30.07 0.0
02 05:15 S 8 10.00 Fair CLR 69.8 55.4 60% 30.07 0.0
02 04:55 S 8 10.00 Fair CLR 69.8 55.4 60% 30.07 0.0
02 04:35 S 9 10.00 Fair CLR 71.6 55.4 57% 30.07 0.0
02 04:15 S 12 10.00 Fair CLR 73.4 55.4 53% 30.07 0.0
02 03:55 S 13 10.00 Fair CLR 75.2 53.6 47% 78 30.07 0.0
02 03:35 S 13 10.00 Fair CLR 75.2 53.6 47% 78 30.07 0.0
02 03:15 S 13 10.00 Fair CLR 75.2 53.6 47% 78 30.07 0.0
02 02:55 S 13 10.00 Fair CLR 77 53.6 44% 78 30.07 0.0
02 02:35 S 15 10.00 Fair CLR 77 53.6 44% 78 30.08 0.0
02 02:15 S 17 10.00 Fair CLR 77 53.6 44% 78 30.08 0.0
02 01:55 S 12 10.00 A Few Clouds FEW100 73.4 55.4 53% 30.08 0.0
02 01:35 S 10 10.00 Partly Cloudy SCT100 73.4 57.2 57% 30.09 0.0
02 01:15 S 8 10.00 A Few Clouds FEW110 71.6 57.2 61% 30.08 0.0
02 00:55 SE 8 10.00 Fair CLR 69.8 59 93.9 70.5 69% 30.08 0.0
02 00:35 S 3 10.00 Fair CLR 71.6 57.2 61% 30.08 0.0
02 00:15 S 3 10.00 Fair CLR 71.6 59 65% 30.09 0.0
01 23:55 S 3 10.00 Fair CLR 71.6 57.2 61% 30.09 0.0
01 23:35 E 1 10.00 Fair CLR 73.4 57.2 57% 30.08 0.0
01 23:15 N 1 10.00 Fair CLR 75.2 57.2 54% 78 30.08 0.0
01 22:55 NW 3 10.00 Fair CLR 77 57.2 51% 79 30.08 0.0
01 22:35 NW 2 10.00 Fair CLR 77 57.2 51% 79 30.08 0.0
01 22:15 NW 9 10.00 Fair CLR 78.8 57.2 48% 80 30.08 0.0
01 21:55 W 7 10.00 A Few Clouds FEW110 80.6 55.4 42% 81 30.07 0.0
01 21:35 W 10 10.00 Mostly Cloudy BKN110 82.4 51.8 35% 81 30.06 0.0
01 21:15 S 9 10.00 Mostly Cloudy BKN110 82.4 51.8 35% 81 30.04 0.0
01 20:56 S 8 10.00 A Few Clouds FEW120 80.6 51.8 37% 80 30.04 0.0
01 20:35 S 9 10.00 Fair CLR 82.4 50 32% 81 30.03 0.0
01 20:15 S 8 10.00 Fair CLR 84.2 50 31% 82 30.03 0.0
01 19:55 S 10 10.00 Fair CLR 86 48.2 27% 83 30.03 0.0
01 19:35 S 13 G 20 10.00 Fair CLR 89.6 48.2 24% 86 30.03 0.0
01 19:15 S 13 10.00 Fair CLR 93.2 48.2 21% 90 30.02 0.0
01 18:55 SE 15 10.00 Fair CLR 93.2 48.2 96.8 89.4 21% 90 30.02 0.0
01 18:35 S 15 G 22 10.00 A Few Clouds FEW095 95 50 22% 92 30.01 0.0
01 18:15 S 18 10.00 A Few Clouds FEW095 95 50 22% 92 30.01 0.0
01 17:55 SE 14 G 25 10.00 A Few Clouds FEW095 95 50 22% 92 30.01 0.0
01 17:35 SE 16 G 22 10.00 A Few Clouds FEW095 95 50 22% 92 30.01 0.0
01 17:15 S 17 G 22 10.00 Fair CLR 95 51.8 23% 92 30.01 0.0
01 16:56 S 17 G 24 10.00 Fair CLR 95 50 22% 92 30.02 0.0
01 16:35 S 15 G 23 10.00 A Few Clouds FEW095 95 48.2 20% 92 30.03 0.0
Date Time (cdt) Wind (mph) Vis. (mi.) Weather Sky Cond. Air Dwpt Max. Min. Relative Humidity Wind Chill (°F) Heat Index (°F) altimeter (in) sea level (mb) 1 hr 3 hr 6 hr
6 hour
Temperature (ºF) Pressure Precipitation (in)